createdAt,value
2018-04-19T00:01:06.896Z,9.63
2018-04-19T00:03:34.361Z,9.63
2018-04-19T00:06:01.816Z,13.30
2018-04-19T00:08:29.393Z,10.47
2018-04-19T00:10:57.035Z,10.40
2018-04-19T00:13:24.548Z,16.57
2018-04-19T00:15:52.071Z,11.17
2018-04-19T00:18:19.889Z,9.50
2018-04-19T00:20:47.513Z,8.33
2018-04-19T00:23:14.960Z,9.77
2018-04-19T00:25:42.505Z,9.40
2018-04-19T00:28:09.965Z,10.30
2018-04-19T00:30:37.609Z,8.17
2018-04-19T00:33:05.177Z,7.73
2018-04-19T00:35:32.656Z,13.07
2018-04-19T00:38:00.406Z,8.20
2018-04-19T00:40:28.169Z,11.80
2018-04-19T00:42:55.927Z,22.30
2018-04-19T00:45:23.393Z,12.93
2018-04-19T00:47:51.157Z,10.47
2018-04-19T00:50:18.760Z,11.23
2018-04-19T00:52:58.117Z,9.37
2018-04-19T00:55:25.589Z,9.07
2018-04-19T00:57:53.051Z,7.83
2018-04-19T01:00:20.725Z,15.50
2018-04-19T01:02:48.222Z,15.40
2018-04-19T01:05:15.954Z,10.43
2018-04-19T01:07:43.596Z,12.13
2018-04-19T01:10:11.181Z,13.93
2018-04-19T01:12:38.923Z,15.37
2018-04-19T01:15:06.364Z,8.77
2018-04-19T01:17:33.834Z,10.23
2018-04-19T01:20:01.296Z,17.87
2018-04-19T01:22:29.228Z,8.63
2018-04-19T01:24:56.742Z,9.23
2018-04-19T01:27:24.284Z,13.97
2018-04-19T01:29:51.746Z,10.97
2018-04-19T01:32:19.399Z,13.60
2018-04-19T01:34:46.880Z,10.53
2018-04-19T01:37:14.428Z,9.30
2018-04-19T01:39:41.881Z,11.13
2018-04-19T01:42:09.355Z,8.53
2018-04-19T01:44:37.110Z,12.13
2018-04-19T01:47:05.251Z,11.57
2018-04-19T01:49:32.727Z,9.97
2018-04-19T01:52:00.181Z,9.10
2018-04-19T01:54:27.646Z,11.87
2018-04-19T01:56:55.410Z,12.20
2018-04-19T01:59:23.074Z,13.77
2018-04-19T02:01:50.834Z,11.47
2018-04-19T02:04:18.630Z,13.10
2018-04-19T02:06:46.270Z,10.70
2018-04-19T02:09:13.737Z,15.67
2018-04-19T02:11:41.277Z,11.43
2018-04-19T02:14:08.925Z,10.50
2018-04-19T02:16:36.386Z,13.83
2018-04-19T02:19:04.650Z,12.90
2018-04-19T02:21:32.206Z,12.93
2018-04-19T02:23:59.785Z,11.10
2018-04-19T02:26:27.242Z,9.30
2018-04-19T02:28:54.713Z,12.57
2018-04-19T02:31:22.166Z,9.30
2018-04-19T02:33:49.642Z,10.17
2018-04-19T02:36:17.098Z,10.57
2018-04-19T02:38:44.842Z,11.73
2018-04-19T02:41:12.301Z,10.37
2018-04-19T02:43:40.062Z,11.27
2018-04-19T02:46:07.737Z,11.83
2018-04-19T02:48:35.202Z,10.93
2018-04-19T02:51:02.738Z,10.70
2018-04-19T02:53:30.265Z,10.90
2018-04-19T02:55:57.737Z,12.80
2018-04-19T02:58:25.212Z,11.50
2018-04-19T03:00:52.682Z,11.33
2018-04-19T03:03:20.947Z,9.83
2018-04-19T03:05:48.623Z,14.43
2018-04-19T03:08:16.850Z,13.00
2018-04-19T03:10:44.543Z,12.57
2018-04-19T03:13:12.303Z,10.27
2018-04-19T03:15:40.070Z,10.07
2018-04-19T03:18:07.836Z,13.07
2018-04-19T03:20:35.519Z,16.97
2018-04-19T03:23:03.020Z,10.07
2018-04-19T03:25:30.489Z,15.03
2018-04-19T03:27:57.946Z,12.60
2018-04-19T03:30:25.410Z,11.10
2018-04-19T03:32:53.070Z,10.70
2018-04-19T03:35:20.533Z,10.97
2018-04-19T03:37:48.094Z,12.47
2018-04-19T03:40:15.559Z,11.77
2018-04-19T03:42:43.226Z,13.47
2018-04-19T03:45:10.769Z,9.87
2018-04-19T03:47:38.246Z,12.77
2018-04-19T03:50:05.986Z,13.70
2018-04-19T03:52:33.450Z,9.67
2018-04-19T03:55:06.470Z,12.07
2018-04-19T03:57:39.414Z,10.40
2018-04-19T04:00:15.430Z,15.17
2018-04-19T04:02:42.903Z,16.03
2018-04-19T04:05:10.403Z,11.20
2018-04-19T04:07:37.870Z,12.47
2018-04-19T04:10:05.524Z,14.27
2018-04-19T04:12:33.010Z,10.93
2018-04-19T04:15:00.478Z,10.20
2018-04-19T04:17:39.618Z,12.47
2018-04-19T04:20:23.617Z,11.57
2018-04-19T04:23:02.882Z,12.43
2018-04-19T04:25:30.362Z,13.80
2018-04-19T04:27:57.935Z,13.80
2018-04-19T04:30:25.390Z,11.80
2018-04-19T04:32:52.885Z,19.30
2018-04-19T04:35:20.383Z,13.70
2018-04-19T04:37:47.836Z,13.10
2018-04-19T04:40:15.352Z,23.90
2018-04-19T04:42:43.101Z,22.30
2018-04-19T04:45:11.422Z,26.00
2018-04-19T04:47:38.886Z,19.87
2018-04-19T04:50:06.392Z,15.77
2018-04-19T04:52:33.854Z,14.23
2018-04-19T04:55:01.322Z,19.00
2018-04-19T04:57:28.945Z,18.20
2018-04-19T04:59:56.422Z,19.70
2018-04-19T05:02:24.011Z,27.20
2018-04-19T05:04:51.670Z,16.87
2018-04-19T05:07:19.135Z,22.50
2018-04-19T05:09:46.666Z,16.40
2018-04-19T05:12:15.218Z,12.40
2018-04-19T05:14:42.802Z,19.40
2018-04-19T05:17:10.566Z,29.17
2018-04-19T05:19:38.326Z,27.43
2018-04-19T05:22:05.797Z,27.87
2018-04-19T05:24:33.383Z,31.00
2018-04-19T05:27:01.933Z,30.07
2018-04-19T05:29:29.496Z,22.57
2018-04-19T05:31:57.159Z,28.27
2018-04-19T05:34:24.905Z,30.53
2018-04-19T05:36:52.444Z,24.00
2018-04-19T05:39:19.913Z,39.03
2018-04-19T05:41:47.591Z,33.47
2018-04-19T05:44:15.059Z,39.10
2018-04-19T05:46:42.817Z,44.10
2018-04-19T05:49:10.274Z,26.10
2018-04-19T05:51:37.905Z,41.17
2018-04-19T05:54:05.366Z,40.43
2018-04-19T05:56:32.950Z,45.03
2018-04-19T05:59:00.413Z,31.73
2018-04-19T06:01:28.020Z,40.33
2018-04-19T06:03:55.630Z,29.17
2018-04-19T06:06:23.112Z,40.23
2018-04-19T06:08:50.846Z,54.07
2018-04-19T06:11:18.527Z,34.97
2018-04-19T06:13:46.064Z,23.70
2018-04-19T06:16:13.526Z,48.30
2018-04-19T06:18:41.165Z,29.90
2018-04-19T06:21:08.751Z,27.30
2018-04-19T06:23:36.232Z,27.03
2018-04-19T06:26:03.809Z,41.93
2018-04-19T06:28:31.344Z,36.57
2018-04-19T06:30:58.874Z,31.17
2018-04-19T06:33:26.638Z,40.73
2018-04-19T06:35:54.397Z,42.83
2018-04-19T06:38:21.877Z,26.03
2018-04-19T06:40:51.444Z,30.13
2018-04-19T06:43:18.917Z,29.80
2018-04-19T06:45:46.382Z,22.87
2018-04-19T06:48:14.298Z,26.17
2018-04-19T06:50:41.762Z,23.73
2018-04-19T06:53:09.281Z,25.30
2018-04-19T06:55:36.821Z,19.90
2018-04-19T06:58:04.739Z,22.93
2018-04-19T07:00:32.213Z,30.83
2018-04-19T07:02:59.970Z,28.87
2018-04-19T07:05:27.445Z,24.60
2018-04-19T07:07:55.131Z,29.17
2018-04-19T07:10:22.591Z,25.80
2018-04-19T07:12:50.055Z,23.67
2018-04-19T07:15:17.549Z,24.07
2018-04-19T07:17:45.315Z,27.50
2018-04-19T07:20:13.538Z,29.17
2018-04-19T07:22:41.010Z,27.67
2018-04-19T07:25:09.073Z,36.60
2018-04-19T07:27:37.330Z,30.60
2018-04-19T07:30:05.336Z,21.23
2018-04-19T07:32:33.578Z,24.30
2018-04-19T07:35:01.038Z,39.27
2018-04-19T07:37:28.507Z,26.43
2018-04-19T07:39:56.010Z,28.47
2018-04-19T07:42:23.480Z,27.53
2018-04-19T07:44:51.027Z,22.03
2018-04-19T07:47:18.790Z,41.47
2018-04-19T07:49:46.271Z,22.73
2018-04-19T07:52:13.760Z,21.87
2018-04-19T07:54:41.272Z,29.10
2018-04-19T07:57:08.743Z,28.43
2018-04-19T07:59:36.203Z,24.53
2018-04-19T08:02:03.672Z,41.60
2018-04-19T08:04:31.148Z,17.63
2018-04-19T08:06:58.614Z,22.70
2018-04-19T08:09:26.859Z,26.67
2018-04-19T08:11:54.342Z,30.97
2018-04-19T08:14:21.812Z,26.57
2018-04-19T08:16:49.285Z,24.13
2018-04-19T08:19:16.766Z,24.27
2018-04-19T08:21:44.238Z,22.20
2018-04-19T08:24:11.721Z,19.90
2018-04-19T08:26:39.973Z,19.37
2018-04-19T08:29:07.462Z,15.53
2018-04-19T08:31:34.922Z,16.07
2018-04-19T08:34:02.387Z,14.10
2018-04-19T08:36:29.842Z,15.90
2018-04-19T08:38:57.309Z,16.30
2018-04-19T08:41:24.767Z,20.33
2018-04-19T08:43:52.264Z,16.83
2018-04-19T08:46:19.733Z,19.53
2018-04-19T08:48:47.214Z,15.13
2018-04-19T08:51:14.686Z,13.60
2018-04-19T08:53:42.142Z,18.40
2018-04-19T08:56:09.606Z,14.80
2018-04-19T08:58:37.061Z,11.97
2018-04-19T09:01:04.622Z,10.80
2018-04-19T09:03:32.852Z,13.50
2018-04-19T09:06:00.325Z,13.70
2018-04-19T09:08:27.928Z,13.83
2018-04-19T09:10:55.402Z,11.23
2018-04-19T09:13:22.849Z,18.87
2018-04-19T09:15:50.332Z,16.87
2018-04-19T09:18:17.795Z,12.73
2018-04-19T09:20:45.259Z,17.37
2018-04-19T09:23:12.832Z,13.97
2018-04-19T09:25:40.194Z,10.90
2018-04-19T09:28:07.679Z,15.67
2018-04-19T09:30:35.142Z,15.17
2018-04-19T09:33:02.629Z,12.07
2018-04-19T09:35:30.091Z,11.73
2018-04-19T09:37:57.555Z,16.83
2018-04-19T09:40:25.022Z,11.40
2018-04-19T09:42:52.486Z,9.70
2018-04-19T09:45:19.943Z,12.27
2018-04-19T09:47:48.207Z,13.80
2018-04-19T09:50:15.692Z,16.93
2018-04-19T09:52:43.167Z,18.40
2018-04-19T09:55:10.613Z,11.00
2018-04-19T09:57:38.139Z,14.27
2018-04-19T10:00:05.597Z,9.73
2018-04-19T10:02:34.831Z,12.23
2018-04-19T10:05:02.297Z,11.83
2018-04-19T10:07:29.957Z,11.63
2018-04-19T10:09:57.433Z,16.67
2018-04-19T10:12:25.181Z,9.37
2018-04-19T10:14:52.648Z,12.23
2018-04-19T10:17:20.113Z,12.97
2018-04-19T10:19:47.790Z,14.47
2018-04-19T10:22:15.254Z,12.53
2018-04-19T10:24:42.717Z,9.43
2018-04-19T10:27:10.170Z,12.13
2018-04-19T10:29:37.654Z,11.30
2018-04-19T10:32:05.890Z,12.33
2018-04-19T10:34:33.411Z,11.30
2018-04-19T10:37:00.937Z,10.20
2018-04-19T10:39:28.397Z,10.23
2018-04-19T10:41:56.672Z,14.70
2018-04-19T10:44:24.179Z,38.60
2018-04-19T10:46:51.644Z,11.43
2018-04-19T10:49:19.114Z,13.37
2018-04-19T10:51:46.573Z,13.27
2018-04-19T10:54:14.048Z,17.60
2018-04-19T10:56:41.554Z,14.03
2018-04-19T10:59:09.157Z,11.17
2018-04-19T11:01:36.626Z,9.50
2018-04-19T11:04:04.101Z,10.67
2018-04-19T11:06:31.583Z,8.87
2018-04-19T11:08:59.052Z,10.00
2018-04-19T11:11:26.525Z,9.37
2018-04-19T11:13:53.997Z,7.77
2018-04-19T11:16:21.511Z,11.90
2018-04-19T11:18:49.861Z,7.20
2018-04-19T11:21:18.105Z,9.33
2018-04-19T11:23:46.290Z,12.30
2018-04-19T11:26:13.770Z,11.27
2018-04-19T11:28:42.010Z,13.27
2018-04-19T11:31:10.068Z,9.33
2018-04-19T11:33:37.526Z,10.23
2018-04-19T11:36:05.798Z,14.77
2018-04-19T11:38:33.479Z,8.27
2018-04-19T11:41:00.986Z,19.07
2018-04-19T11:43:28.451Z,13.00
2018-04-19T11:45:56.832Z,16.87
2018-04-19T11:48:24.536Z,12.03
2018-04-19T11:50:52.046Z,12.93
2018-04-19T11:53:19.725Z,12.00
2018-04-19T11:55:47.177Z,9.43
2018-04-19T11:58:14.654Z,11.83
2018-04-19T12:00:42.106Z,7.33
2018-04-19T12:03:09.578Z,6.60
2018-04-19T12:05:37.038Z,6.23
2018-04-19T12:08:04.547Z,10.90
2018-04-19T12:10:32.008Z,11.33
2018-04-19T12:12:59.469Z,6.77
2018-04-19T12:15:26.926Z,8.63
2018-04-19T12:17:54.688Z,6.47
2018-04-19T12:20:22.146Z,10.50
2018-04-19T12:22:49.626Z,9.00
2018-04-19T12:25:17.085Z,7.33
2018-04-19T12:27:44.566Z,8.47
2018-04-19T12:30:12.022Z,6.97
2018-04-19T12:32:39.486Z,9.70
2018-04-19T12:35:06.961Z,10.43
2018-04-19T12:37:34.498Z,9.17
2018-04-19T12:40:01.942Z,11.67
2018-04-19T12:42:29.415Z,8.07
2018-04-19T12:44:56.896Z,7.73
2018-04-19T12:47:24.368Z,9.57
2018-04-19T12:49:51.836Z,5.93
2018-04-19T12:52:19.491Z,5.73
2018-04-19T12:54:47.051Z,6.53
2018-04-19T12:57:15.184Z,6.23
2018-04-19T12:59:42.690Z,6.17
2018-04-19T13:02:10.187Z,5.33
2018-04-19T13:04:37.663Z,11.07
2018-04-19T13:07:05.999Z,5.63
2018-04-19T13:12:07.350Z,6.63
2018-04-19T13:14:34.899Z,5.17
2018-04-19T13:17:02.349Z,6.20
2018-04-19T13:19:29.815Z,7.10
2018-04-19T13:21:57.266Z,5.40
2018-04-19T13:24:24.733Z,6.57
2018-04-19T13:26:52.201Z,8.07
2018-04-19T13:29:19.668Z,4.33
2018-04-19T13:31:47.510Z,7.40
2018-04-19T13:34:14.970Z,17.03
2018-04-19T13:36:42.445Z,6.80
2018-04-19T13:39:09.900Z,5.87
2018-04-19T13:41:37.370Z,3.87
2018-04-19T13:44:04.825Z,7.37
2018-04-19T13:46:32.294Z,5.27
2018-04-19T13:48:59.755Z,5.10
2018-04-19T13:51:27.225Z,5.43
2018-04-19T13:53:55.457Z,13.33
2018-04-19T13:56:22.926Z,7.23
2018-04-19T13:58:50.405Z,9.00
2018-04-19T14:01:17.867Z,6.30
2018-04-19T14:03:45.463Z,6.47
2018-04-19T14:06:12.926Z,3.90
2018-04-19T14:08:40.684Z,5.27
2018-04-19T14:11:08.158Z,3.10
2018-04-19T14:13:35.630Z,7.75
2018-04-19T14:16:03.133Z,5.82
2018-04-19T14:18:30.588Z,4.20
2018-04-19T14:20:58.043Z,8.70
2018-04-19T14:23:25.510Z,4.82
2018-04-19T14:25:52.971Z,3.97
2018-04-19T14:28:20.436Z,3.97
2018-04-19T14:30:47.909Z,6.13
2018-04-19T14:33:16.050Z,8.30
2018-04-19T14:35:43.558Z,7.57
2018-04-19T14:38:11.038Z,5.07
2018-04-19T14:40:38.493Z,3.63
2018-04-19T14:43:05.962Z,6.47
2018-04-19T14:45:34.380Z,3.30
2018-04-19T14:48:01.837Z,7.03
2018-04-19T14:50:29.323Z,5.87
2018-04-19T14:52:56.794Z,3.70
2018-04-19T14:55:24.508Z,4.12
2018-04-19T14:57:51.902Z,6.35
2018-04-19T15:00:19.402Z,4.30
2018-04-19T15:02:47.626Z,5.57
2018-04-19T15:05:15.507Z,4.32
2018-04-19T15:07:42.985Z,6.57
2018-04-19T15:10:11.244Z,4.18
2018-04-19T15:12:38.701Z,5.97
2018-04-19T15:15:06.317Z,4.50
2018-04-19T15:17:33.758Z,3.37
2018-04-19T15:20:01.267Z,7.87
2018-04-19T15:22:28.729Z,3.73
2018-04-19T15:24:56.217Z,10.43
2018-04-19T15:27:23.747Z,4.43
2018-04-19T15:29:51.210Z,6.73
2018-04-19T15:32:18.665Z,5.47
2018-04-19T15:34:46.150Z,12.40
2018-04-19T15:37:13.606Z,6.30
2018-04-19T15:39:41.081Z,4.33
2018-04-19T15:42:08.537Z,5.53
2018-04-19T15:44:35.997Z,8.33
2018-04-19T15:47:03.461Z,3.83
2018-04-19T15:49:30.934Z,3.97
2018-04-19T15:51:58.443Z,4.27
2018-04-19T15:54:26.661Z,5.80
2018-04-19T15:56:54.117Z,4.90
2018-04-19T15:59:21.590Z,7.97
2018-04-19T16:01:50.054Z,5.47
2018-04-19T16:04:17.602Z,4.03
2018-04-19T16:06:45.072Z,5.33
2018-04-19T16:09:12.543Z,3.60
2018-04-19T16:11:39.998Z,8.93
2018-04-19T16:14:07.477Z,6.77
2018-04-19T16:16:34.942Z,5.67
2018-04-19T16:19:02.425Z,6.37
2018-04-19T16:21:29.867Z,6.60
2018-04-19T16:23:58.138Z,5.97
2018-04-19T16:26:25.581Z,16.03
2018-04-19T16:28:53.097Z,8.10
2018-04-19T16:31:20.527Z,6.50
2018-04-19T16:33:48.741Z,7.27
2018-04-19T16:36:16.224Z,4.40
2018-04-19T16:38:43.763Z,7.23
2018-04-19T16:41:11.218Z,9.20
2018-04-19T16:43:38.677Z,8.30
2018-04-19T16:46:06.177Z,5.57
2018-04-19T16:48:34.424Z,4.93
2018-04-19T16:51:01.873Z,4.47
2018-04-19T16:53:29.343Z,5.37
2018-04-19T16:55:56.840Z,5.93
2018-04-19T16:58:24.341Z,10.77
2018-04-19T17:00:51.802Z,7.03
2018-04-19T17:03:19.287Z,6.40
2018-04-19T17:05:46.751Z,8.23
2018-04-19T17:08:14.994Z,6.57
2018-04-19T17:10:42.455Z,7.57
2018-04-19T17:13:09.940Z,8.80
2018-04-19T17:15:37.385Z,8.00
2018-04-19T17:18:04.873Z,9.40
2018-04-19T17:20:32.338Z,10.73
2018-04-19T17:22:59.799Z,8.07
2018-04-19T17:25:27.340Z,7.83
2018-04-19T17:27:55.357Z,5.07
2018-04-19T17:30:22.821Z,4.07
2018-04-19T17:32:50.274Z,6.87
2018-04-19T17:35:17.757Z,6.33
2018-04-19T17:37:45.206Z,9.10
2018-04-19T17:40:13.402Z,4.97
2018-04-19T17:42:40.857Z,5.80
2018-04-19T17:45:08.318Z,7.13
2018-04-19T17:47:35.780Z,8.70
2018-04-19T17:50:03.284Z,6.73
2018-04-19T17:52:30.746Z,7.53
2018-04-19T17:54:58.206Z,3.83
2018-04-19T17:57:25.658Z,5.47
2018-04-19T17:59:53.233Z,15.87
2018-04-19T18:02:20.678Z,9.83
2018-04-19T18:04:48.188Z,12.90
2018-04-19T18:07:15.690Z,11.30
2018-04-19T18:09:43.145Z,7.47
2018-04-19T18:12:10.616Z,7.00
2018-04-19T18:14:38.089Z,14.63
2018-04-19T18:17:05.549Z,7.10
2018-04-19T18:19:33.001Z,6.43
2018-04-19T18:22:00.465Z,10.10
2018-04-19T18:24:27.922Z,10.03
2018-04-19T18:26:55.386Z,9.43
2018-04-19T18:29:22.841Z,14.03
2018-04-19T18:31:50.313Z,12.97
2018-04-19T18:34:17.795Z,10.07
2018-04-19T18:36:45.253Z,7.47
2018-04-19T18:39:12.712Z,10.57
2018-04-19T18:41:40.175Z,6.83
2018-04-19T18:44:07.691Z,8.37
2018-04-19T18:46:35.159Z,7.03
2018-04-19T18:49:02.634Z,9.70
2018-04-19T18:51:30.107Z,15.17
2018-04-19T18:53:57.561Z,8.77
2018-04-19T18:56:25.260Z,12.67
2018-04-19T18:58:52.734Z,8.73
2018-04-19T19:01:20.218Z,10.87
2018-04-19T19:03:47.721Z,11.17
2018-04-19T19:06:15.182Z,16.30
2018-04-19T19:08:42.646Z,21.27
2018-04-19T19:11:10.130Z,14.07
2018-04-19T19:13:38.393Z,14.13
2018-04-19T19:16:09.638Z,35.83
2018-04-19T19:18:48.889Z,24.80
2018-04-19T19:21:16.368Z,52.97
2018-04-19T19:23:43.831Z,37.43
2018-04-19T19:26:11.316Z,30.57
2018-04-19T19:28:38.789Z,16.33
2018-04-19T19:31:06.654Z,14.93
2018-04-19T19:33:34.197Z,11.30
2018-04-19T19:36:01.667Z,15.40
2018-04-19T19:38:29.904Z,13.03
2018-04-19T19:40:57.319Z,13.83
2018-04-19T19:43:25.542Z,13.63
2018-04-19T19:45:53.003Z,14.20
2018-04-19T19:48:20.457Z,13.33
2018-04-19T19:50:47.922Z,13.18
2018-04-19T19:53:15.400Z,16.03
2018-04-19T19:55:42.886Z,10.37
2018-04-19T19:58:10.342Z,10.90
2018-04-19T20:00:37.801Z,15.50
2018-04-19T20:03:05.263Z,11.90
2018-04-19T20:05:32.721Z,8.93
2018-04-19T20:08:00.227Z,11.30
2018-04-19T20:10:27.704Z,18.43
2018-04-19T20:12:55.182Z,15.37
2018-04-19T20:15:23.425Z,14.97
2018-04-19T20:17:50.878Z,9.73
2018-04-19T20:20:18.375Z,10.57
2018-04-19T20:22:45.900Z,11.70
2018-04-19T20:25:13.380Z,10.00
2018-04-19T20:27:40.907Z,11.33
2018-04-19T20:30:08.497Z,15.50
2018-04-19T20:32:35.919Z,13.13
2018-04-19T20:35:03.419Z,11.83
2018-04-19T20:37:30.912Z,7.83
2018-04-19T20:39:58.424Z,17.70
2018-04-19T20:42:27.535Z,9.83
2018-04-19T20:44:55.787Z,12.20
2018-04-19T20:47:23.290Z,11.37
2018-04-19T20:49:50.770Z,10.20
2018-04-19T20:52:18.267Z,15.40
2018-04-19T20:54:45.730Z,18.27
2018-04-19T20:57:13.248Z,10.80
2018-04-19T20:59:40.738Z,18.23
2018-04-19T21:02:08.282Z,12.47
2018-04-19T21:04:35.773Z,12.47
2018-04-19T21:07:03.282Z,11.27
2018-04-19T21:09:30.828Z,15.77
2018-04-19T21:11:58.305Z,17.93
2018-04-19T21:14:27.061Z,8.37
2018-04-19T21:16:54.516Z,8.77
2018-04-19T21:19:21.976Z,15.07
2018-04-19T21:21:49.464Z,15.57
2018-04-19T21:24:17.075Z,14.87
2018-04-19T21:26:45.350Z,14.97
2018-04-19T21:29:12.834Z,12.10
2018-04-19T21:31:40.502Z,11.57
2018-04-19T21:34:08.025Z,14.03
2018-04-19T21:36:36.252Z,10.87
2018-04-19T21:39:03.720Z,11.67
2018-04-19T21:41:31.237Z,11.77
2018-04-19T21:43:58.698Z,9.77
2018-04-19T21:46:26.197Z,18.53
2018-04-19T21:48:53.732Z,17.83
2018-04-19T21:51:21.246Z,10.27
2018-04-19T21:53:49.496Z,7.83
2018-04-19T21:56:16.950Z,13.53
2018-04-19T21:58:44.974Z,16.20
2018-04-19T22:01:12.427Z,7.67
2018-04-19T22:03:39.929Z,11.40
2018-04-19T22:06:07.382Z,10.80
2018-04-19T22:08:35.609Z,11.63
2018-04-19T22:11:03.110Z,13.10
2018-04-19T22:13:30.574Z,9.83
2018-04-19T22:15:58.026Z,17.43
2018-04-19T22:18:25.508Z,10.60
2018-04-19T22:20:52.960Z,10.10
2018-04-19T22:23:20.425Z,11.77
2018-04-19T22:25:47.882Z,13.20
2018-04-19T22:28:15.337Z,10.47
2018-04-19T22:30:42.806Z,12.67
2018-04-19T22:33:10.266Z,9.30
2018-04-19T22:35:37.726Z,7.70
2018-04-19T22:38:05.257Z,10.67
2018-04-19T22:40:32.734Z,10.33
2018-04-19T22:43:00.959Z,10.37
2018-04-19T22:45:28.421Z,11.83
2018-04-19T22:47:55.881Z,14.07
2018-04-19T22:50:24.214Z,10.47
2018-04-19T22:52:51.670Z,15.87
2018-04-19T22:55:19.134Z,10.40
2018-04-19T22:57:46.604Z,12.97
2018-04-19T23:00:14.097Z,10.67
2018-04-19T23:02:41.548Z,10.47
2018-04-19T23:05:09.029Z,13.07
2018-04-19T23:07:36.474Z,15.10
2018-04-19T23:10:03.930Z,15.13
2018-04-19T23:12:31.399Z,9.10
2018-04-19T23:14:58.857Z,10.40
2018-04-19T23:17:26.322Z,9.77
2018-04-19T23:19:53.785Z,10.63
2018-04-19T23:22:33.099Z,11.93
2018-04-19T23:25:00.580Z,8.10
2018-04-19T23:27:28.801Z,11.00
2018-04-19T23:29:57.041Z,12.63
2018-04-19T23:32:24.499Z,10.90
2018-04-19T23:34:51.964Z,14.03
2018-04-19T23:37:19.454Z,10.80
2018-04-19T23:39:46.918Z,10.33
2018-04-19T23:42:14.398Z,16.57
2018-04-19T23:44:41.870Z,10.63
2018-04-19T23:47:09.348Z,13.13
2018-04-19T23:49:36.874Z,11.83
2018-04-19T23:52:05.106Z,11.50
2018-04-19T23:54:32.578Z,13.83
2018-04-19T23:57:00.038Z,13.77
2018-04-19T23:59:27.501Z,9.00
